Time;durP1;ratioP1;P1;durP2;ratioP2;P2;SDS_P1;SDS_P2;PMS_P1;PMS_P2;Temp;Humidity;BMP_temperature;BMP_pressure;BME280_temperature;BME280_humidity;BME280_pressure;Samples;Min_cycle;Max_cycle;Signal;HPM_P1;HPM_P2
2023/07/06 00:01:07;;;;;;;2.30;2.10;;;27.80;53.20;;;;;;5035055;28;20467;-66
2023/07/06 00:03:38;;;;;;;2.30;2.10;;;27.80;53.20;;;;;;5039242;28;20489;-66
2023/07/06 00:06:08;;;;;;;2.27;1.80;;;27.80;53.20;;;;;;5046028;28;20491;-66
2023/07/06 00:08:38;;;;;;;1.60;1.50;;;27.80;53.20;;;;;;5035758;28;20474;-67
2023/07/06 00:11:09;;;;;;;1.90;1.80;;;27.80;53.20;;;;;;5034220;28;20472;-66
2023/07/06 00:13:38;;;;;;;2.57;2.10;;;27.80;53.20;;;;;;5045568;28;20474;-68
2023/07/06 00:16:07;;;;;;;2.73;2.00;;;27.80;53.20;;;;;;5033541;28;20461;-72
2023/07/06 00:18:39;;;;;;;2.03;1.83;;;27.80;53.20;;;;;;5024529;28;20815;-66
2023/07/06 00:21:08;;;;;;;1.80;1.70;;;27.80;53.20;;;;;;5051531;28;20489;-66
2023/07/06 00:23:36;;;;;;;3.20;2.10;;;27.70;53.20;;;;;;5044898;28;20496;-69
2023/07/06 00:26:04;;;;;;;2.60;2.13;;;27.70;53.30;;;;;;5055486;28;20524;-66
2023/07/06 00:28:35;;;;;;;1.87;1.77;;;27.70;53.30;;;;;;5044569;28;20471;-73
2023/07/06 00:31:10;;;;;;;2.77;2.57;;;27.70;53.30;;;;;;5029221;28;20992;-66
2023/07/06 00:33:39;;;;;;;2.30;2.10;;;27.70;53.30;;;;;;5041147;28;20456;-71
2023/07/06 00:36:08;;;;;;;4.73;2.20;;;27.70;53.30;;;;;;5027786;28;20473;-71
2023/07/06 00:38:36;;;;;;;2.13;1.90;;;27.70;53.30;;;;;;5025251;28;20490;-66
2023/07/06 00:41:05;;;;;;;2.13;2.00;;;27.70;53.30;;;;;;5040698;28;20938;-66
2023/07/06 00:43:50;;;;;;;2.37;2.17;;;27.70;53.30;;;;;;5040843;28;20861;-72
2023/07/06 00:46:20;;;;;;;2.23;2.03;;;27.70;53.40;;;;;;5042683;28;20465;-67
2023/07/06 00:48:52;;;;;;;4.43;2.60;;;27.70;53.40;;;;;;5043511;28;20894;-67
2023/07/06 00:51:28;;;;;;;2.47;2.27;;;27.70;53.50;;;;;;5033529;28;20461;-66
2023/07/06 00:54:01;;;;;;;2.57;2.37;;;27.70;53.40;;;;;;5045613;28;21290;-70
2023/07/06 00:56:36;;;;;;;2.03;1.90;;;27.60;53.50;;;;;;5033577;28;20458;-74
2023/07/06 00:59:09;;;;;;;1.77;1.67;;;27.60;53.40;;;;;;5026930;28;20468;-69
2023/07/06 01:01:42;;;;;;;2.60;1.90;;;27.60;53.40;;;;;;5034865;28;20542;-70
2023/07/06 01:04:13;;;;;;;2.33;2.00;;;27.60;53.40;;;;;;5046700;28;20494;-66
2023/07/06 01:06:47;;;;;;;2.13;2.03;;;27.60;53.50;;;;;;5044194;28;20520;-73
2023/07/06 01:09:18;;;;;;;2.63;2.20;;;27.60;53.50;;;;;;5042577;28;21052;-66
2023/07/06 01:11:47;;;;;;;1.70;1.60;;;27.60;53.50;;;;;;5043162;28;20465;-71
2023/07/06 01:14:17;;;;;;;1.80;1.70;;;27.50;53.50;;;;;;5025154;28;21130;-66
2023/07/06 01:16:51;;;;;;;2.50;2.10;;;27.50;53.50;;;;;;5040385;28;20470;-66
2023/07/06 01:19:46;;;;;;;1.97;1.83;;;27.50;53.50;;;;;;5023771;28;20521;-68
2023/07/06 01:22:30;;;;;;;2.73;2.17;;;27.50;53.50;;;;;;5037699;28;20527;-66
2023/07/06 01:25:14;;;;;;;3.10;1.90;;;27.50;53.50;;;;;;5038367;28;20515;-67
2023/07/06 01:28:00;;;;;;;6.33;2.50;;;27.50;53.50;;;;;;5041211;28;20563;-67
2023/07/06 01:31:01;;;;;;;4.80;1.97;;;27.50;53.50;;;;;;5036472;28;20558;-66
2023/07/06 01:33:38;;;;;;;3.80;1.90;;;27.40;53.50;;;;;;5040774;28;20470;-66
2023/07/06 01:36:14;;;;;;;3.30;2.20;;;27.40;53.50;;;;;;5038562;28;20505;-70
2023/07/06 01:38:43;;;;;;;2.03;1.90;;;27.40;53.50;;;;;;5040271;28;20490;-67
2023/07/06 01:41:11;;;;;;;1.73;1.63;;;27.40;53.50;;;;;;5039089;28;20553;-68
2023/07/06 01:43:40;;;;;;;2.30;2.10;;;27.40;53.50;;;;;;5021056;28;20483;-66
2023/07/06 01:46:08;;;;;;;3.20;2.10;;;27.40;53.60;;;;;;5024324;28;20486;-71
2023/07/06 01:48:38;;;;;;;1.67;1.57;;;27.40;53.50;;;;;;5046681;28;20543;-67
2023/07/06 01:51:15;;;;;;;4.00;1.97;;;27.40;53.50;;;;;;5053013;28;20464;-66
2023/07/06 01:53:52;;;;;;;1.60;1.50;;;27.40;53.50;;;;;;5036119;28;20469;-66
2023/07/06 01:56:25;;;;;;;2.00;1.80;;;27.30;53.40;;;;;;5042561;28;20554;-66
2023/07/06 01:59:00;;;;;;;3.00;1.70;;;27.30;53.40;;;;;;5016672;28;20468;-67
2023/07/06 02:01:36;;;;;;;2.50;1.63;;;27.30;53.40;;;;;;5026721;28;20444;-70
2023/07/06 02:04:08;;;;;;;2.63;2.00;;;27.30;53.50;;;;;;5042406;28;20461;-66
2023/07/06 02:06:37;;;;;;;2.27;2.10;;;27.30;53.40;;;;;;5015209;28;20554;-66
2023/07/06 02:09:06;;;;;;;1.80;1.70;;;27.30;53.50;;;;;;5028690;28;20461;-71
2023/07/06 02:11:35;;;;;;;3.63;2.40;;;27.30;53.40;;;;;;5028154;28;20454;-74
2023/07/06 02:14:03;;;;;;;2.17;1.97;;;27.30;53.40;;;;;;5017729;28;20480;-67
2023/07/06 02:16:32;;;;;;;2.00;1.90;;;27.30;53.40;;;;;;5042595;28;20516;-67
2023/07/06 02:19:01;;;;;;;1.87;1.67;;;27.30;53.40;;;;;;5037327;28;20464;-67
2023/07/06 02:21:32;;;;;;;2.00;1.80;;;27.30;53.40;;;;;;5037233;28;22030;-66
2023/07/06 02:24:00;;;;;;;2.40;2.20;;;27.20;53.40;;;;;;5036728;28;20493;-67
2023/07/06 02:26:28;;;;;;;1.80;1.70;;;27.20;53.40;;;;;;5032965;28;20456;-74
2023/07/06 02:28:57;;;;;;;2.53;1.80;;;27.20;53.40;;;;;;5036874;28;20474;-69
2023/07/06 02:31:25;;;;;;;1.90;1.80;;;27.20;53.50;;;;;;5045528;28;20507;-66
2023/07/06 02:33:53;;;;;;;2.40;1.87;;;27.20;53.40;;;;;;5039330;28;20517;-66
2023/07/06 02:36:21;;;;;;;1.70;1.60;;;27.20;53.40;;;;;;5028999;28;20791;-72
2023/07/06 02:38:51;;;;;;;2.43;2.23;;;27.20;53.40;;;;;;5039894;28;21340;-67
2023/07/06 02:41:19;;;;;;;2.07;1.90;;;27.20;53.50;;;;;;5039137;28;20464;-74
2023/07/06 02:43:47;;;;;;;2.50;2.30;;;27.10;53.50;;;;;;5052602;28;20941;-69
2023/07/06 02:46:19;;;;;;;2.27;1.80;;;27.20;53.50;;;;;;5039498;28;20455;-70
2023/07/06 02:48:50;;;;;;;2.23;1.60;;;27.10;53.40;;;;;;5021222;28;20558;-66
2023/07/06 02:51:18;;;;;;;1.90;1.80;;;27.10;53.50;;;;;;5041081;28;20758;-66
2023/07/06 02:53:46;;;;;;;2.37;2.07;;;27.10;53.40;;;;;;5042890;28;21241;-65
2023/07/06 02:56:16;;;;;;;2.80;2.27;;;27.10;53.50;;;;;;5039828;28;20508;-69
2023/07/06 02:58:45;;;;;;;2.03;1.93;;;27.10;53.50;;;;;;5048085;28;20506;-66
2023/07/06 03:01:15;;;;;;;4.60;1.93;;;27.10;53.40;;;;;;5030586;28;20470;-69
2023/07/06 03:03:44;;;;;;;2.37;2.17;;;27.10;53.40;;;;;;5037628;28;20485;-66
2023/07/06 03:06:12;;;;;;;2.07;1.97;;;27.00;53.40;;;;;;5043974;28;21345;-66
2023/07/06 03:08:40;;;;;;;2.33;2.13;;;27.00;53.40;;;;;;5039542;28;20461;-65
2023/07/06 03:11:10;;;;;;;3.70;2.10;;;27.00;53.40;;;;;;5032866;28;21009;-65
2023/07/06 03:13:40;;;;;;;2.00;1.90;;;27.00;53.40;;;;;;5048230;28;20462;-68
2023/07/06 03:16:08;;;;;;;2.00;1.90;;;27.00;53.40;;;;;;5045188;28;20532;-66
2023/07/06 03:18:37;;;;;;;3.03;2.27;;;27.00;53.40;;;;;;5038981;28;20459;-68
2023/07/06 03:21:05;;;;;;;2.30;2.17;;;27.00;53.40;;;;;;5028237;28;20458;-67
2023/07/06 03:23:33;;;;;;;5.17;2.30;;;27.00;53.40;;;;;;5017973;28;20967;-67
2023/07/06 03:26:01;;;;;;;1.90;1.80;;;27.00;53.40;;;;;;5042713;28;20541;-66
2023/07/06 03:28:30;;;;;;;4.40;2.23;;;27.00;53.40;;;;;;5040285;28;20584;-67
2023/07/06 03:30:59;;;;;;;2.97;2.23;;;27.00;53.40;;;;;;5044860;28;20521;-66
2023/07/06 03:33:28;;;;;;;4.00;1.83;;;27.00;53.40;;;;;;5032498;28;20537;-66
2023/07/06 03:35:58;;;;;;;1.77;1.67;;;26.90;53.40;;;;;;5028254;28;20466;-71
2023/07/06 03:38:27;;;;;;;2.10;2.00;;;26.90;53.40;;;;;;5045727;28;20923;-65
2023/07/06 03:40:56;;;;;;;1.87;1.77;;;26.90;53.40;;;;;;5023349;28;20469;-66
2023/07/06 03:43:25;;;;;;;1.50;1.40;;;26.90;53.40;;;;;;5052010;28;20468;-65
2023/07/06 03:45:53;;;;;;;2.43;2.23;;;26.90;53.20;;;;;;5044217;28;20462;-66
2023/07/06 03:48:23;;;;;;;3.57;2.17;;;26.90;53.40;;;;;;5036893;28;20975;-66
2023/07/06 03:50:52;;;;;;;4.20;2.10;;;26.90;53.40;;;;;;5035276;28;20489;-66
2023/07/06 03:53:21;;;;;;;3.60;2.40;;;26.90;53.40;;;;;;5042526;28;20457;-66
2023/07/06 03:55:53;;;;;;;4.70;2.33;;;26.90;53.40;;;;;;5039806;28;20475;-66
2023/07/06 03:58:22;;;;;;;2.03;1.93;;;26.90;53.40;;;;;;5042225;28;21005;-69
2023/07/06 04:00:50;;;;;;;2.27;2.00;;;26.80;53.40;;;;;;5053019;28;20855;-66
2023/07/06 04:03:18;;;;;;;3.40;2.33;;;26.80;53.40;;;;;;5042113;28;20521;-66
2023/07/06 04:05:49;;;;;;;2.37;2.00;;;26.80;53.40;;;;;;5044055;28;21054;-69
2023/07/06 04:08:20;;;;;;;1.70;1.60;;;26.80;53.50;;;;;;5038134;28;20467;-66
2023/07/06 04:10:49;;;;;;;3.43;2.27;;;26.80;53.50;;;;;;5044583;28;20531;-70
2023/07/06 04:13:17;;;;;;;2.43;2.20;;;26.80;53.50;;;;;;5038609;28;20470;-66
2023/07/06 04:15:49;;;;;;;3.97;1.93;;;26.80;53.40;;;;;;5036886;28;20535;-66
2023/07/06 04:18:17;;;;;;;2.97;1.93;;;26.80;53.40;;;;;;5040415;28;21045;-67
2023/07/06 04:20:46;;;;;;;4.00;1.70;;;26.80;53.40;;;;;;5047037;28;20460;-67
2023/07/06 04:23:16;;;;;;;3.10;2.13;;;26.80;53.40;;;;;;5047974;28;20459;-66
2023/07/06 04:25:44;;;;;;;3.37;2.00;;;26.80;53.40;;;;;;5034990;28;20503;-67
2023/07/06 04:28:14;;;;;;;4.97;2.33;;;26.80;53.40;;;;;;5029710;28;20871;-65
2023/07/06 04:30:45;;;;;;;2.53;2.20;;;26.80;53.40;;;;;;5032062;28;20480;-68
2023/07/06 04:33:16;;;;;;;3.27;2.47;;;26.80;53.40;;;;;;5042757;28;20457;-65
2023/07/06 04:35:44;;;;;;;2.23;1.80;;;26.80;53.40;;;;;;5038586;28;20463;-66
2023/07/06 04:38:13;;;;;;;2.50;2.30;;;26.80;53.50;;;;;;5043828;28;21278;-66
2023/07/06 04:40:43;;;;;;;2.37;2.17;;;26.80;53.50;;;;;;5049519;28;20462;-66
2023/07/06 04:43:12;;;;;;;3.00;2.20;;;26.80;53.50;;;;;;5029604;28;20906;-69
2023/07/06 04:45:40;;;;;;;2.20;1.80;;;26.80;53.50;;;;;;5040431;28;20459;-76
2023/07/06 04:48:10;;;;;;;2.37;2.17;;;26.80;53.50;;;;;;5047561;28;20479;-66
2023/07/06 04:50:40;;;;;;;2.27;1.93;;;26.80;53.50;;;;;;5044851;28;20486;-67
2023/07/06 04:53:09;;;;;;;2.70;2.33;;;26.80;53.40;;;;;;5040928;28;20558;-66
2023/07/06 04:55:38;;;;;;;4.60;2.93;;;26.80;53.40;;;;;;5038892;28;20524;-71
2023/07/06 04:58:07;;;;;;;2.53;2.33;;;26.70;53.40;;;;;;5041133;28;20469;-72
2023/07/06 05:00:39;;;;;;;4.33;2.40;;;26.70;53.40;;;;;;5037035;28;20457;-66
2023/07/06 05:03:09;;;;;;;2.90;2.20;;;26.70;53.30;;;;;;5026928;28;20524;-71
2023/07/06 05:05:40;;;;;;;8.07;2.83;;;26.70;53.30;;;;;;5040977;28;20522;-69
2023/07/06 05:08:09;;;;;;;2.63;2.20;;;26.70;53.40;;;;;;5037655;28;20472;-69
2023/07/06 05:10:38;;;;;;;2.10;1.93;;;26.80;53.50;;;;;;5035881;28;20454;-69
2023/07/06 05:13:08;;;;;;;2.60;2.40;;;26.80;53.50;;;;;;5045149;28;20462;-68
2023/07/06 05:15:37;;;;;;;4.47;2.90;;;26.80;53.60;;;;;;5040190;28;21117;-70
2023/07/06 05:18:06;;;;;;;7.17;2.40;;;26.80;53.70;;;;;;5037254;28;20460;-68
2023/07/06 05:20:34;;;;;;;2.40;2.17;;;26.80;53.70;;;;;;5035882;28;20462;-68
2023/07/06 05:23:05;;;;;;;4.37;3.00;;;26.80;53.80;;;;;;5036720;28;20477;-69
2023/07/06 05:25:34;;;;;;;4.93;2.80;;;26.80;53.80;;;;;;5036834;28;20548;-69
2023/07/06 05:28:02;;;;;;;2.67;2.30;;;26.80;53.90;;;;;;5042908;28;20532;-70
2023/07/06 05:30:32;;;;;;;3.40;2.50;;;26.80;53.90;;;;;;5034039;28;20462;-70
2023/07/06 05:33:00;;;;;;;2.70;2.23;;;26.80;53.90;;;;;;5040513;28;20486;-69
2023/07/06 05:35:29;;;;;;;3.60;2.83;;;26.80;53.90;;;;;;5037914;28;20520;-69
2023/07/06 05:37:57;;;;;;;3.63;2.47;;;26.80;53.90;;;;;;5045261;28;20579;-69
2023/07/06 05:40:25;;;;;;;3.30;2.50;;;26.90;53.90;;;;;;5034933;28;20460;-70
2023/07/06 05:42:55;;;;;;;2.93;2.27;;;26.80;54.00;;;;;;5045837;28;20462;-70
2023/07/06 05:45:23;;;;;;;2.70;2.43;;;26.90;54.00;;;;;;5031426;28;20449;-67
2023/07/06 05:47:52;;;;;;;3.87;3.07;;;26.90;54.10;;;;;;5031420;28;20533;-68
2023/07/06 05:50:21;;;;;;;2.73;2.40;;;26.90;54.30;;;;;;5035773;28;20469;-68
2023/07/06 05:52:49;;;;;;;2.90;2.40;;;26.90;54.40;;;;;;5042944;28;20486;-69
2023/07/06 05:55:17;;;;;;;2.90;2.70;;;26.90;54.50;;;;;;5033835;28;20516;-67
2023/07/06 05:57:46;;;;;;;2.60;2.40;;;26.90;54.60;;;;;;5042174;28;20458;-67
2023/07/06 06:00:15;;;;;;;5.50;2.73;;;26.90;54.60;;;;;;5036979;28;20468;-69
2023/07/06 06:02:44;;;;;;;2.80;2.60;;;26.90;54.70;;;;;;5040676;28;21031;-68
2023/07/06 06:05:14;;;;;;;5.00;2.97;;;26.90;54.60;;;;;;5032636;28;20478;-68
2023/07/06 06:07:43;;;;;;;2.73;2.50;;;26.90;54.70;;;;;;5034399;28;20465;-68
2023/07/06 06:10:12;;;;;;;2.90;2.50;;;26.90;54.80;;;;;;5037060;28;23688;-68
2023/07/06 06:12:42;;;;;;;3.57;2.57;;;26.90;54.80;;;;;;5033855;28;20722;-67
2023/07/06 06:15:11;;;;;;;3.43;2.60;;;26.90;54.80;;;;;;5036950;28;20461;-67
2023/07/06 06:17:40;;;;;;;2.90;2.60;;;26.90;54.90;;;;;;5039971;28;20499;-68
2023/07/06 06:20:09;;;;;;;3.50;2.70;;;26.90;54.90;;;;;;5037463;28;20459;-67
2023/07/06 06:22:40;;;;;;;3.73;2.90;;;26.90;54.90;;;;;;5030768;28;20463;-67
2023/07/06 06:25:09;;;;;;;4.53;2.60;;;26.90;54.90;;;;;;5029084;28;21316;-67
2023/07/06 06:27:37;;;;;;;2.73;2.40;;;26.90;55.00;;;;;;5053666;28;20456;-68
2023/07/06 06:30:07;;;;;;;2.77;2.53;;;26.90;55.00;;;;;;5053857;28;20453;-67
2023/07/06 06:32:36;;;;;;;4.00;2.40;;;26.90;55.00;;;;;;5054196;28;20477;-68
2023/07/06 06:35:19;;;;;;;4.20;2.60;;;26.90;55.00;;;;;;5051001;28;20446;-68
2023/07/06 06:37:48;;;;;;;4.33;2.90;;;26.90;55.00;;;;;;5059816;28;20497;-68
2023/07/06 06:40:17;;;;;;;3.10;2.80;;;26.90;55.00;;;;;;5042260;28;20827;-67
2023/07/06 06:42:46;;;;;;;2.60;2.40;;;27.00;55.10;;;;;;5050322;28;20524;-68
2023/07/06 06:45:15;;;;;;;3.17;2.33;;;27.00;55.10;;;;;;5033578;28;20463;-69
2023/07/06 06:47:44;;;;;;;3.23;3.03;;;27.00;55.10;;;;;;5049369;28;20503;-67
2023/07/06 06:50:16;;;;;;;4.97;3.00;;;27.00;55.20;;;;;;5055933;28;20503;-68
2023/07/06 06:52:45;;;;;;;7.33;3.37;;;27.00;55.20;;;;;;5053592;28;20526;-67
2023/07/06 06:55:15;;;;;;;2.60;2.20;;;27.00;55.20;;;;;;5046477;28;20469;-67
2023/07/06 06:57:43;;;;;;;3.10;2.80;;;27.00;55.20;;;;;;5046894;28;20485;-67
2023/07/06 07:00:14;;;;;;;3.27;2.77;;;27.00;55.30;;;;;;5027484;28;20866;-69
2023/07/06 07:02:42;;;;;;;3.70;2.50;;;27.00;55.30;;;;;;5039378;28;20459;-67
2023/07/06 07:05:15;;;;;;;2.80;2.60;;;27.00;55.40;;;;;;5046070;28;20803;-67
2023/07/06 07:07:43;;;;;;;2.40;2.20;;;27.00;55.30;;;;;;5048746;28;20444;-68
2023/07/06 07:10:12;;;;;;;2.80;2.60;;;27.00;55.40;;;;;;5043041;28;20461;-67
2023/07/06 07:12:42;;;;;;;3.27;2.97;;;27.00;55.40;;;;;;5037786;28;20489;-67
2023/07/06 07:15:14;;;;;;;3.00;2.70;;;27.00;55.50;;;;;;5039585;28;20462;-67
2023/07/06 07:17:43;;;;;;;3.90;3.40;;;27.00;55.50;;;;;;5052132;28;20446;-68
2023/07/06 07:20:13;;;;;;;2.90;2.70;;;27.00;55.50;;;;;;5050672;28;20523;-68
2023/07/06 07:22:41;;;;;;;3.37;2.87;;;27.00;55.50;;;;;;5042663;28;20453;-68
2023/07/06 07:25:09;;;;;;;3.43;3.13;;;27.00;56.00;;;;;;5048652;28;20527;-68
2023/07/06 07:27:38;;;;;;;5.10;3.10;;;27.10;56.00;;;;;;5050237;28;20447;-68
2023/07/06 07:30:11;;;;;;;4.50;2.53;;;27.10;56.10;;;;;;5050519;28;20451;-69
2023/07/06 07:32:41;;;;;;;2.73;2.53;;;27.10;56.20;;;;;;5046814;28;20473;-68
2023/07/06 07:35:11;;;;;;;4.47;3.40;;;27.10;56.20;;;;;;5051598;28;20477;-68
2023/07/06 07:37:39;;;;;;;3.57;2.93;;;27.10;56.30;;;;;;5027962;28;20822;-72
2023/07/06 07:40:15;;;;;;;3.63;3.23;;;27.10;56.30;;;;;;5038444;28;20466;-67
2023/07/06 07:42:46;;;;;;;3.30;3.00;;;27.20;56.30;;;;;;5052394;28;20452;-69
2023/07/06 07:45:18;;;;;;;3.10;2.60;;;27.20;56.30;;;;;;5052309;28;20439;-69
2023/07/06 07:47:47;;;;;;;4.60;3.20;;;27.20;56.30;;;;;;5039038;28;20464;-70
2023/07/06 07:50:17;;;;;;;2.97;2.73;;;27.20;56.30;;;;;;5035572;28;20450;-69
2023/07/06 07:52:45;;;;;;;3.07;2.87;;;27.20;56.20;;;;;;5045826;28;20502;-69
2023/07/06 07:55:14;;;;;;;4.07;3.00;;;27.20;56.40;;;;;;5038687;28;20443;-69
2023/07/06 07:57:42;;;;;;;2.40;2.20;;;27.30;56.40;;;;;;5047129;28;20579;-67
2023/07/06 08:00:11;;;;;;;3.27;2.93;;;27.30;56.40;;;;;;5044095;28;20436;-67
2023/07/06 08:02:45;;;;;;;3.17;2.87;;;27.30;56.40;;;;;;5039046;28;20574;-67
2023/07/06 08:05:14;;;;;;;3.10;2.90;;;27.30;56.40;;;;;;5049245;28;20460;-67
2023/07/06 08:07:45;;;;;;;2.83;2.63;;;27.30;56.40;;;;;;5052329;28;20439;-71
2023/07/06 08:10:14;;;;;;;3.27;2.97;;;27.30;56.40;;;;;;5052443;28;20441;-67
2023/07/06 08:12:42;;;;;;;2.80;2.60;;;27.30;56.40;;;;;;5064298;28;20475;-66
2023/07/06 08:15:13;;;;;;;4.00;2.90;;;27.40;56.30;;;;;;5039687;28;20447;-68
2023/07/06 08:17:43;;;;;;;3.07;2.77;;;27.40;56.40;;;;;;5051468;28;20444;-70
2023/07/06 08:20:12;;;;;;;3.50;3.20;;;27.40;56.30;;;;;;5061286;28;20467;-68
2023/07/06 08:23:02;;;;;;;3.53;2.90;;;27.40;56.30;;;;;;5041952;28;20956;-68
2023/07/06 08:25:37;;;;;;;3.13;2.83;;;27.40;56.30;;;;;;5052290;28;20473;-68
2023/07/06 08:28:06;;;;;;;5.80;3.90;;;27.40;56.40;;;;;;5050665;28;21013;-68
2023/07/06 08:30:34;;;;;;;3.20;2.90;;;27.40;56.40;;;;;;5033683;28;20473;-67
2023/07/06 08:33:05;;;;;;;3.37;2.87;;;27.50;56.40;;;;;;5042427;28;20491;-68
2023/07/06 08:35:34;;;;;;;3.40;3.00;;;27.50;56.40;;;;;;5044573;28;20950;-67
2023/07/06 08:38:04;;;;;;;3.07;2.77;;;27.50;56.40;;;;;;5034601;28;21056;-67
2023/07/06 08:40:34;;;;;;;3.00;2.80;;;27.50;56.40;;;;;;5036286;28;20460;-69
2023/07/06 08:43:06;;;;;;;3.10;2.80;;;27.50;56.30;;;;;;5059790;28;20458;-69
2023/07/06 08:45:40;;;;;;;3.33;3.03;;;27.60;56.30;;;;;;5058381;28;20947;-67
2023/07/06 08:48:14;;;;;;;3.27;2.97;;;27.50;56.30;;;;;;5038617;28;21006;-67
2023/07/06 08:50:48;;;;;;;3.47;3.17;;;27.60;56.30;;;;;;5051929;28;20432;-67
2023/07/06 08:53:17;;;;;;;2.53;2.33;;;27.60;56.30;;;;;;5057844;28;20569;-67
2023/07/06 08:55:46;;;;;;;3.63;3.20;;;27.60;56.30;;;;;;5052270;28;20491;-68
2023/07/06 08:58:22;;;;;;;3.60;3.30;;;27.60;56.30;;;;;;5050384;28;20950;-67
2023/07/06 09:00:51;;;;;;;2.97;2.77;;;27.60;56.40;;;;;;5031805;28;20451;-67
2023/07/06 09:03:23;;;;;;;3.23;2.97;;;27.60;56.40;;;;;;5034990;28;20441;-67
2023/07/06 09:05:53;;;;;;;2.67;2.47;;;27.70;56.20;;;;;;5043266;28;20461;-67
2023/07/06 09:08:23;;;;;;;3.43;3.13;;;27.70;56.30;;;;;;5050480;28;20440;-67
2023/07/06 09:10:51;;;;;;;3.20;2.97;;;27.70;56.30;;;;;;5051337;28;20456;-67
2023/07/06 09:13:24;;;;;;;3.40;3.17;;;27.70;56.40;;;;;;5050521;28;20562;-69
2023/07/06 09:15:57;;;;;;;3.20;2.97;;;27.70;56.30;;;;;;5049284;28;20463;-71
2023/07/06 09:18:29;;;;;;;4.50;3.13;;;27.70;56.20;;;;;;5028196;28;20983;-68
2023/07/06 09:20:58;;;;;;;3.27;2.97;;;27.70;56.30;;;;;;5049684;28;20447;-67
2023/07/06 09:23:26;;;;;;;3.27;2.97;;;27.70;56.20;;;;;;5056793;28;20452;-71
2023/07/06 09:25:56;;;;;;;2.83;2.63;;;27.70;56.30;;;;;;5037349;28;20827;-69
2023/07/06 09:28:29;;;;;;;3.60;3.30;;;27.80;56.20;;;;;;5048709;28;20468;-68
2023/07/06 09:31:09;;;;;;;3.20;2.90;;;27.70;56.20;;;;;;5050987;28;20959;-68
2023/07/06 09:33:47;;;;;;;3.87;3.57;;;27.80;56.20;;;;;;5053516;28;20468;-68
2023/07/06 09:36:19;;;;;;;3.50;3.03;;;27.80;56.10;;;;;;5051379;28;20457;-69
2023/07/06 09:38:47;;;;;;;3.37;3.10;;;27.80;56.30;;;;;;5029258;28;20877;-68
2023/07/06 09:41:26;;;;;;;4.20;3.33;;;27.80;56.20;;;;;;5031202;28;20456;-67
2023/07/06 09:43:58;;;;;;;3.03;2.83;;;27.80;56.20;;;;;;5022021;28;20954;-68
2023/07/06 09:46:30;;;;;;;3.37;3.07;;;27.80;56.20;;;;;;5033572;28;20492;-69
2023/07/06 09:48:59;;;;;;;3.77;3.40;;;27.80;56.10;;;;;;5030241;28;20537;-67
2023/07/06 09:51:36;;;;;;;2.90;2.70;;;27.80;56.10;;;;;;5031073;28;20499;-68
2023/07/06 09:54:14;;;;;;;2.83;2.57;;;27.90;56.00;;;;;;5025624;28;20476;-72
2023/07/06 09:56:43;;;;;;;4.60;2.90;;;27.90;56.10;;;;;;5031045;28;20449;-68
2023/07/06 09:59:12;;;;;;;3.70;2.80;;;27.90;56.10;;;;;;5028168;28;20865;-68
2023/07/06 10:01:48;;;;;;;3.40;3.10;;;27.90;56.10;;;;;;5015852;28;20446;-68
2023/07/06 10:04:44;;;;;;;3.93;2.90;;;27.80;56.10;;;;;;5022245;28;20482;-69
2023/07/06 10:07:18;;;;;;;2.80;2.60;;;27.90;56.00;;;;;;5023692;28;20499;-67
2023/07/06 10:09:56;;;;;;;4.53;2.87;;;27.80;56.10;;;;;;5016460;28;20512;-69
2023/07/06 10:12:32;;;;;;;3.30;3.00;;;27.90;56.00;;;;;;5028566;28;20949;-66
2023/07/06 10:15:08;;;;;;;3.30;3.00;;;27.90;55.90;;;;;;5024562;28;20512;-67
2023/07/06 10:17:38;;;;;;;3.10;2.60;;;27.90;56.00;;;;;;5023614;28;20989;-67
2023/07/06 10:20:17;;;;;;;3.07;2.87;;;27.90;55.90;;;;;;5020507;28;20498;-67
2023/07/06 10:23:16;;;;;;;3.53;3.20;;;27.90;55.90;;;;;;5022143;28;20463;-67
2023/07/06 10:25:51;;;;;;;3.27;2.97;;;27.80;55.80;;;;;;5023733;28;20533;-66
2023/07/06 10:28:25;;;;;;;2.83;2.63;;;27.80;55.60;;;;;;5021665;28;20922;-67
2023/07/06 10:30:55;;;;;;;2.70;2.50;;;27.80;55.50;;;;;;5029806;28;20505;-66
2023/07/06 10:33:28;;;;;;;3.43;3.13;;;27.80;55.30;;;;;;5041335;28;20938;-66
2023/07/06 10:35:58;;;;;;;3.13;2.80;;;27.80;55.30;;;;;;5029272;28;20459;-65
2023/07/06 10:38:27;;;;;;;4.00;2.60;;;27.80;55.10;;;;;;5039937;28;20494;-68
2023/07/06 10:41:21;;;;;;;3.43;3.13;;;27.80;54.80;;;;;;5043119;28;20442;-66
2023/07/06 10:43:51;;;;;;;3.87;2.77;;;27.80;54.60;;;;;;5056662;28;20960;-65
2023/07/06 10:46:32;;;;;;;2.80;2.50;;;27.80;54.40;;;;;;5049100;28;20442;-65
2023/07/06 10:49:19;;;;;;;3.10;2.90;;;27.70;54.40;;;;;;5053203;28;20477;-65
2023/07/06 10:51:51;;;;;;;2.53;2.33;;;27.70;54.50;;;;;;5041569;28;20545;-67
2023/07/06 10:54:24;;;;;;;3.17;2.97;;;27.70;54.50;;;;;;5030123;28;20878;-65
2023/07/06 10:57:02;;;;;;;2.50;2.30;;;27.70;54.40;;;;;;5022624;28;21037;-68
2023/07/06 10:59:38;;;;;;;3.20;3.00;;;27.70;54.20;;;;;;5044519;28;20468;-66
2023/07/06 11:02:22;;;;;;;2.83;2.60;;;27.60;54.10;;;;;;5048172;28;20458;-65
2023/07/06 11:05:09;;;;;;;2.50;2.30;;;27.60;54.10;;;;;;5041834;28;20498;-68
2023/07/06 11:07:45;;;;;;;2.90;2.70;;;27.60;54.30;;;;;;5031316;28;20810;-68
2023/07/06 11:10:35;;;;;;;2.80;2.60;;;27.60;54.50;;;;;;5045828;28;20450;-65
2023/07/06 11:13:21;;;;;;;3.53;3.23;;;27.60;54.60;;;;;;5057947;28;20457;-66
2023/07/06 11:15:59;;;;;;;3.77;3.40;;;27.60;54.60;;;;;;5031339;28;21135;-66
2023/07/06 11:18:37;;;;;;;3.20;2.90;;;27.60;54.70;;;;;;5047627;28;20548;-67
2023/07/06 11:21:18;;;;;;;3.07;2.73;;;27.60;54.80;;;;;;5050579;28;20461;-66
2023/07/06 11:23:54;;;;;;;3.40;3.10;;;27.70;55.00;;;;;;5053723;28;20516;-67
2023/07/06 11:26:35;;;;;;;4.27;3.03;;;27.70;55.00;;;;;;5053277;28;20448;-66
2023/07/06 11:29:07;;;;;;;5.20;3.10;;;27.70;55.00;;;;;;5042011;28;20457;-68
2023/07/06 11:31:49;;;;;;;3.67;3.17;;;27.70;55.00;;;;;;5046945;28;20471;-68
2023/07/06 11:34:26;;;;;;;3.97;3.50;;;27.70;55.00;;;;;;5042218;28;20477;-70
2023/07/06 11:37:01;;;;;;;4.90;3.10;;;27.80;54.80;;;;;;5041355;28;20451;-68
2023/07/06 11:39:38;;;;;;;3.47;3.23;;;27.80;55.00;;;;;;5043270;28;20958;-70
2023/07/06 11:42:24;;;;;;;6.27;3.57;;;27.80;55.00;;;;;;5044946;28;20534;-70
2023/07/06 11:44:54;;;;;;;3.33;2.87;;;27.80;55.20;;;;;;5041785;28;20713;-67
2023/07/06 11:47:46;;;;;;;3.57;3.27;;;27.90;55.20;;;;;;5041779;28;20458;-67
2023/07/06 11:50:17;;;;;;;3.43;2.90;;;27.90;55.00;;;;;;5040384;28;20891;-67
2023/07/06 11:53:08;;;;;;;3.53;2.70;;;27.90;55.00;;;;;;5046163;28;20453;-68
2023/07/06 11:55:51;;;;;;;3.57;3.27;;;27.90;55.10;;;;;;5042367;28;20473;-67
2023/07/06 11:58:31;;;;;;;3.27;3.07;;;27.90;55.10;;;;;;5046362;28;20459;-68
2023/07/06 12:01:10;;;;;;;4.30;3.57;;;28.00;55.10;;;;;;5044403;28;20851;-68
2023/07/06 12:03:39;;;;;;;5.10;3.10;;;28.00;55.00;;;;;;5043960;28;20468;-67
2023/07/06 12:06:17;;;;;;;3.73;3.40;;;28.10;54.90;;;;;;5045005;28;20538;-69
2023/07/06 12:08:46;;;;;;;4.40;4.03;;;28.10;54.70;;;;;;5050414;28;20446;-68
2023/07/06 12:11:20;;;;;;;3.00;2.80;;;28.20;54.30;;;;;;5038849;28;20937;-68
2023/07/06 12:13:52;;;;;;;4.70;4.20;;;28.30;54.10;;;;;;5038082;28;20541;-68
2023/07/06 12:16:23;;;;;;;2.83;2.63;;;28.40;53.60;;;;;;5042560;28;20474;-65
2023/07/06 12:18:56;;;;;;;2.73;2.50;;;28.50;52.80;;;;;;5045771;28;20816;-65
2023/07/06 12:21:29;;;;;;;3.37;3.07;;;28.60;53.10;;;;;;5046368;28;20481;-64
2023/07/06 12:24:00;;;;;;;3.00;2.70;;;28.80;53.20;;;;;;5041426;28;20514;-64
2023/07/06 12:26:30;;;;;;;3.40;3.10;;;29.00;52.80;;;;;;5043622;28;20519;-70
2023/07/06 12:29:01;;;;;;;4.20;3.33;;;29.20;52.60;;;;;;5043801;28;20487;-65
2023/07/06 12:31:31;;;;;;;3.73;3.40;;;29.40;52.40;;;;;;5031296;28;20831;-65
2023/07/06 12:34:01;;;;;;;4.10;3.03;;;29.60;52.30;;;;;;5041914;28;20482;-65
2023/07/06 12:36:33;;;;;;;2.90;2.70;;;29.70;52.10;;;;;;5045745;28;20492;-65
2023/07/06 12:39:05;;;;;;;2.93;2.73;;;29.70;51.90;;;;;;5041962;28;20494;-66
2023/07/06 12:41:36;;;;;;;2.70;2.50;;;29.70;52.10;;;;;;5040039;28;20483;-66
2023/07/06 12:44:10;;;;;;;2.90;2.70;;;29.70;52.20;;;;;;5049784;28;20454;-65
2023/07/06 12:46:41;;;;;;;2.80;2.60;;;29.60;52.20;;;;;;5046190;28;20470;-71
2023/07/06 12:49:20;;;;;;;3.10;2.80;;;29.50;52.40;;;;;;5045525;28;20493;-64
2023/07/06 12:51:54;;;;;;;2.60;2.40;;;29.40;52.60;;;;;;5043241;28;20450;-69
2023/07/06 12:54:24;;;;;;;3.53;3.20;;;29.30;53.00;;;;;;5044268;28;21000;-66
2023/07/06 12:56:59;;;;;;;3.53;3.20;;;29.30;53.00;;;;;;5044447;28;20477;-71
2023/07/06 12:59:33;;;;;;;3.10;2.47;;;29.20;53.30;;;;;;5042144;28;21300;-65
2023/07/06 13:02:16;;;;;;;3.30;3.00;;;29.20;53.40;;;;;;5041543;28;20492;-69
2023/07/06 13:04:47;;;;;;;3.10;2.90;;;29.10;53.50;;;;;;5046059;28;20469;-66
2023/07/06 13:07:19;;;;;;;3.20;3.00;;;29.10;53.70;;;;;;5038385;28;21000;-65
2023/07/06 13:09:49;;;;;;;3.20;3.00;;;29.00;53.90;;;;;;5043262;28;20926;-65
2023/07/06 13:12:23;;;;;;;3.13;2.93;;;29.00;54.00;;;;;;5019767;28;20799;-65